createdAt,value
2022-10-04T00:02:07.482Z,102610.44
2022-10-04T00:04:45.322Z,102606.00
2022-10-04T00:07:14.906Z,102615.78
2022-10-04T00:09:58.797Z,102621.53
2022-10-04T00:12:47.465Z,102622.84
2022-10-04T00:15:39.078Z,102620.78
2022-10-04T00:18:30.096Z,102622.94
2022-10-04T00:21:04.650Z,102629.03
2022-10-04T00:23:40.936Z,102619.34
2022-10-04T00:26:26.107Z,102628.94
2022-10-04T00:28:56.789Z,102618.91
2022-10-04T00:31:28.586Z,102620.53
2022-10-04T00:34:10.692Z,102633.03
2022-10-04T00:36:47.286Z,102632.66
2022-10-04T00:39:20.322Z,102637.44
2022-10-04T00:41:50.543Z,102642.63
2022-10-04T00:44:38.798Z,102642.19
2022-10-04T00:47:23.348Z,102636.34
2022-10-04T00:50:00.543Z,102634.03
2022-10-04T00:52:36.890Z,102635.34
2022-10-04T00:55:11.253Z,102632.22
2022-10-04T00:57:49.664Z,102635.16
2022-10-04T01:00:22.863Z,102631.16
2022-10-04T01:03:06.886Z,102629.28
2022-10-04T01:05:48.632Z,102618.47
2022-10-04T01:08:30.063Z,102631.31
2022-10-04T01:11:09.940Z,102626.56
2022-10-04T01:13:44.751Z,102632.13
2022-10-04T01:16:22.608Z,102630.78
2022-10-04T01:18:53.583Z,102630.25
2022-10-04T01:21:32.765Z,102620.75
2022-10-04T01:24:03.073Z,102615.88
2022-10-04T01:26:43.186Z,102613.41
2022-10-04T01:29:28.765Z,102612.25
2022-10-04T01:32:01.870Z,102612.66
2022-10-04T01:34:32.842Z,102607.78
2022-10-04T01:37:03.535Z,102601.75
2022-10-04T01:39:33.646Z,102600.88
2022-10-04T01:42:18.478Z,102589.72
2022-10-04T01:45:03.352Z,102588.31
2022-10-04T01:47:37.446Z,102587.06
2022-10-04T01:50:15.961Z,102578.03
2022-10-04T01:52:57.253Z,102580.25
2022-10-04T01:55:36.389Z,102564.97
2022-10-04T01:58:29.564Z,102555.66
2022-10-04T02:01:08.250Z,102552.41
2022-10-04T02:04:22.437Z,102548.22
2022-10-04T02:06:56.988Z,102544.69
2022-10-04T02:09:35.680Z,102539.69
2022-10-04T02:12:07.455Z,102532.06
2022-10-04T02:14:40.498Z,102528.88
2022-10-04T02:17:13.709Z,102526.34
2022-10-04T02:19:46.218Z,102512.72
2022-10-04T02:22:17.545Z,102508.91
2022-10-04T02:24:50.993Z,102510.22
2022-10-04T02:27:20.979Z,102511.78
2022-10-04T02:29:51.552Z,102504.34
2022-10-04T02:32:39.525Z,102504.09
2022-10-04T02:35:09.857Z,102507.00
2022-10-04T02:37:41.349Z,102494.22
2022-10-04T02:40:17.886Z,102493.50
2022-10-04T02:42:50.222Z,102494.50
2022-10-04T02:45:54.483Z,102484.63
2022-10-04T02:49:02.387Z,102470.03
2022-10-04T02:51:38.085Z,102468.75
2022-10-04T02:54:23.014Z,102468.25
2022-10-04T02:56:54.774Z,102456.91
2022-10-04T02:59:25.468Z,102448.59
2022-10-04T03:01:57.784Z,102441.13
2022-10-04T03:04:35.418Z,102428.22
2022-10-04T03:07:10.051Z,102426.75
2022-10-04T03:09:42.206Z,102430.59
2022-10-04T03:12:14.985Z,102418.28
2022-10-04T03:14:44.951Z,102410.81
2022-10-04T03:17:18.389Z,102394.19
2022-10-04T03:19:51.615Z,102399.94
2022-10-04T03:22:24.575Z,102390.06
2022-10-04T03:24:59.035Z,102393.41
2022-10-04T03:27:35.180Z,102385.56
2022-10-04T03:30:06.412Z,102383.97
2022-10-04T03:32:37.335Z,102367.81
2022-10-04T03:35:14.157Z,102359.50
2022-10-04T03:37:45.034Z,102351.91
2022-10-04T03:40:17.118Z,102355.97
2022-10-04T03:42:48.529Z,102352.31
2022-10-04T03:45:21.941Z,102338.09
2022-10-04T03:47:54.901Z,102333.50
2022-10-04T03:50:41.095Z,102340.75
2022-10-04T03:53:44.304Z,102327.22
2022-10-04T03:56:18.505Z,102324.44
2022-10-04T03:58:51.936Z,102326.97
2022-10-04T04:01:40.557Z,102316.19
2022-10-04T04:04:36.991Z,102306.31
2022-10-04T04:07:16.361Z,102305.19
2022-10-04T04:09:53.593Z,102295.41
2022-10-04T04:12:35.431Z,102289.84
2022-10-04T04:15:08.493Z,102288.47
2022-10-04T04:17:52.680Z,102281.38
2022-10-04T04:20:30.758Z,102271.22
2022-10-04T04:23:01.117Z,102269.84
2022-10-04T04:25:36.271Z,102260.75
2022-10-04T04:28:28.636Z,102253.09
2022-10-04T04:31:22.902Z,102249.31
2022-10-04T04:34:05.480Z,102244.03
2022-10-04T04:36:43.938Z,102227.72
2022-10-04T04:39:35.686Z,102235.97
2022-10-04T04:42:25.004Z,102220.59
2022-10-04T04:45:03.105Z,102217.94
2022-10-04T04:47:40.344Z,102208.72
2022-10-04T04:50:20.499Z,102196.69
2022-10-04T04:52:56.253Z,102201.75
2022-10-04T04:55:56.311Z,102188.88
2022-10-04T04:58:29.361Z,102176.84
2022-10-04T05:01:22.634Z,102173.63
2022-10-04T05:04:16.625Z,102173.22
2022-10-04T05:06:51.250Z,102159.66
2022-10-04T05:09:35.489Z,102154.19
2022-10-04T05:12:11.516Z,102144.41
2022-10-04T05:14:47.422Z,102142.75
2022-10-04T05:17:34.672Z,102133.50
2022-10-04T05:20:06.877Z,102123.72
2022-10-04T05:22:38.853Z,102117.69
2022-10-04T05:25:16.977Z,102110.94
2022-10-04T05:27:47.640Z,102106.16
2022-10-04T05:30:23.461Z,102090.91
2022-10-04T05:32:52.765Z,102094.09
2022-10-04T05:35:25.085Z,102085.00
2022-10-04T05:38:04.089Z,102088.63
2022-10-04T05:41:09.016Z,102093.66
2022-10-04T05:43:46.775Z,102089.97
2022-10-04T05:46:28.695Z,102082.53
2022-10-04T05:49:00.260Z,102074.28
2022-10-04T05:51:50.249Z,102076.47
2022-10-04T05:54:35.406Z,102064.72
2022-10-04T05:57:23.911Z,102057.41
2022-10-04T06:00:34.655Z,102050.66
2022-10-04T06:03:04.563Z,102052.88
2022-10-04T06:06:19.167Z,102042.63
2022-10-04T06:09:15.434Z,102038.53
2022-10-04T06:11:44.993Z,102030.06
2022-10-04T06:14:53.944Z,102034.13
2022-10-04T06:18:22.987Z,102023.31
2022-10-04T06:21:18.820Z,102012.66
2022-10-04T06:23:59.600Z,102015.53
2022-10-04T06:26:45.190Z,102010.59
2022-10-04T06:29:25.103Z,102004.84
2022-10-04T06:32:00.983Z,101996.72
2022-10-04T06:35:07.993Z,102003.41
2022-10-04T06:38:03.707Z,101986.09
2022-10-04T06:41:05.727Z,101988.31
2022-10-04T06:43:52.938Z,101980.84
2022-10-04T06:46:35.337Z,101976.88
2022-10-04T06:49:24.593Z,101975.59
2022-10-04T06:52:03.373Z,101973.31
2022-10-04T06:55:05.243Z,101972.81
2022-10-04T06:58:01.556Z,101971.53
2022-10-04T07:00:36.604Z,101965.03
2022-10-04T07:03:17.510Z,101961.25
2022-10-04T07:06:03.056Z,101955.44
2022-10-04T07:08:53.220Z,101955.94
2022-10-04T07:11:34.693Z,101962.13
2022-10-04T07:14:46.869Z,101964.63
2022-10-04T07:17:31.610Z,101958.16
2022-10-04T07:20:04.808Z,101950.00
2022-10-04T07:22:54.746Z,101945.34
2022-10-04T07:25:45.581Z,101946.84
2022-10-04T07:28:42.424Z,101954.53
2022-10-04T07:31:33.071Z,101943.56
2022-10-04T07:34:23.494Z,101955.03
2022-10-04T07:37:01.720Z,101961.41
2022-10-04T07:39:54.318Z,101952.69
2022-10-04T07:42:42.243Z,101959.03
2022-10-04T07:45:18.115Z,101948.22
2022-10-04T07:47:48.972Z,101942.88
2022-10-04T07:50:34.963Z,101940.06
2022-10-04T07:53:18.762Z,101947.19
2022-10-04T07:55:53.246Z,101941.88
2022-10-04T07:58:57.422Z,101949.88
2022-10-04T08:02:05.080Z,101940.22
2022-10-04T08:05:00.367Z,101944.03
2022-10-04T08:07:47.582Z,101941.50
2022-10-04T08:10:44.378Z,101941.50
2022-10-04T08:13:46.129Z,101943.50
2022-10-04T08:16:25.396Z,101942.66
2022-10-04T08:19:30.420Z,101936.81
2022-10-04T08:22:15.288Z,101941.31
2022-10-04T08:25:20.211Z,101942.31
2022-10-04T08:28:40.732Z,101939.94
2022-10-04T08:31:36.031Z,101939.13
2022-10-04T08:34:47.514Z,101950.09
2022-10-04T08:37:48.737Z,101953.25
2022-10-04T08:40:40.544Z,101957.34
2022-10-04T08:43:27.020Z,101951.34
2022-10-04T08:46:19.972Z,101951.66
2022-10-04T08:49:06.209Z,101955.63
2022-10-04T08:52:26.345Z,101955.41
2022-10-04T08:55:22.202Z,101955.22
2022-10-04T08:58:10.001Z,101952.47
2022-10-04T09:00:59.932Z,101948.47
2022-10-04T09:04:02.902Z,101952.56
2022-10-04T09:06:58.339Z,101951.16
2022-10-04T09:09:45.711Z,101953.44
2022-10-04T09:12:21.857Z,101961.75
2022-10-04T09:15:00.300Z,101965.03
2022-10-04T09:17:59.633Z,101957.47
2022-10-04T09:20:54.173Z,101952.63
2022-10-04T09:23:57.581Z,101951.25
2022-10-04T09:26:46.229Z,101957.19
2022-10-04T09:29:53.473Z,101956.81
2022-10-04T09:32:48.023Z,101961.88
2022-10-04T09:35:46.834Z,101959.13
2022-10-04T09:39:11.546Z,101952.72
2022-10-04T09:41:50.497Z,101955.84
2022-10-04T09:44:54.604Z,101958.13
2022-10-04T09:47:38.922Z,101978.16
2022-10-04T09:50:28.163Z,101976.94
2022-10-04T09:53:19.623Z,101971.34
2022-10-04T09:56:19.552Z,101982.59
2022-10-04T09:59:23.298Z,101981.50
2022-10-04T10:02:20.070Z,101982.38
2022-10-04T10:05:31.251Z,101991.91
2022-10-04T10:08:28.418Z,101993.06
2022-10-04T10:11:37.543Z,101995.03
2022-10-04T10:14:10.263Z,101997.00
2022-10-04T10:17:02.203Z,102008.34
2022-10-04T10:19:52.942Z,102006.50
2022-10-04T10:22:59.429Z,102011.56
2022-10-04T10:25:50.596Z,102011.41
2022-10-04T10:28:50.994Z,102016.72
2022-10-04T10:31:33.043Z,102023.00
2022-10-04T10:34:03.130Z,102021.44
2022-10-04T10:37:02.439Z,102021.31
2022-10-04T10:39:50.885Z,102020.19
2022-10-04T10:42:39.241Z,102033.00
2022-10-04T10:45:34.014Z,102042.47
2022-10-04T10:48:21.688Z,102034.06
2022-10-04T10:51:16.736Z,102045.91
2022-10-04T10:54:23.570Z,102047.41
2022-10-04T10:57:08.675Z,102055.91
2022-10-04T11:00:15.325Z,102068.59
2022-10-04T11:03:13.752Z,102066.00
2022-10-04T11:05:59.388Z,102069.34
2022-10-04T11:08:38.302Z,102075.16
2022-10-04T11:11:08.361Z,102074.69
2022-10-04T11:13:51.485Z,102074.28
2022-10-04T11:16:30.595Z,102073.66
2022-10-04T11:19:03.745Z,102080.06
2022-10-04T11:22:27.195Z,102085.75
2022-10-04T11:25:26.733Z,102093.88
2022-10-04T11:28:19.918Z,102095.06
2022-10-04T11:31:13.665Z,102100.91
2022-10-04T11:34:13.227Z,102112.81
2022-10-04T11:37:22.741Z,102109.88
2022-10-04T11:40:16.600Z,102111.59
2022-10-04T11:42:59.935Z,102104.13
2022-10-04T11:45:35.333Z,102116.91
2022-10-04T11:48:18.575Z,102110.19
2022-10-04T11:51:23.626Z,102114.88
2022-10-04T11:53:59.615Z,102120.31
2022-10-04T11:56:47.995Z,102123.19
2022-10-04T11:59:26.360Z,102117.31
2022-10-04T12:02:24.958Z,102115.97
2022-10-04T12:05:13.602Z,102110.31
2022-10-04T12:08:21.193Z,102110.13
2022-10-04T12:11:26.358Z,102101.44
2022-10-04T12:13:59.069Z,102105.19
2022-10-04T12:16:45.140Z,102116.00
2022-10-04T12:19:34.936Z,102108.47
2022-10-04T12:22:22.340Z,102110.50
2022-10-04T12:25:16.989Z,102117.84
2022-10-04T12:28:24.466Z,102118.78
2022-10-04T12:31:26.740Z,102115.91
2022-10-04T12:34:19.707Z,102122.19
2022-10-04T12:37:05.105Z,102127.47
2022-10-04T12:40:09.810Z,102131.19
2022-10-04T12:42:48.505Z,102140.09
2022-10-04T12:45:46.512Z,102142.97
2022-10-04T12:48:17.712Z,102154.75
2022-10-04T12:51:08.361Z,102152.13
2022-10-04T12:53:41.524Z,102156.66
2022-10-04T12:56:33.390Z,102157.88
2022-10-04T12:59:16.623Z,102150.28
2022-10-04T13:02:06.317Z,102158.59
2022-10-04T13:04:51.650Z,102158.81
2022-10-04T13:08:01.136Z,102151.13
2022-10-04T13:11:05.035Z,102162.19
2022-10-04T13:14:12.491Z,102163.34
2022-10-04T13:17:30.301Z,102159.25
2022-10-04T13:20:32.476Z,102159.25
2022-10-04T13:23:24.200Z,102160.25
2022-10-04T13:26:25.116Z,102156.84
2022-10-04T13:29:05.740Z,102151.56
2022-10-04T13:31:39.273Z,102158.78
2022-10-04T13:34:21.324Z,102158.03
2022-10-04T13:37:03.694Z,102155.63
2022-10-04T13:39:56.179Z,102151.44
2022-10-04T13:42:52.072Z,102160.41
2022-10-04T13:45:59.016Z,102155.28
2022-10-04T13:48:43.561Z,102151.03
2022-10-04T13:51:35.461Z,102157.53
2022-10-04T13:54:42.338Z,102162.31
2022-10-04T13:57:38.868Z,102174.06
2022-10-04T14:00:16.150Z,102169.03
2022-10-04T14:03:12.597Z,102169.25
2022-10-04T14:06:07.955Z,102177.16
2022-10-04T14:08:46.801Z,102177.38
2022-10-04T14:11:48.202Z,102184.59
2022-10-04T14:14:46.788Z,102178.56
2022-10-04T14:17:28.930Z,102181.44
2022-10-04T14:20:26.704Z,102183.34
2022-10-04T14:23:05.939Z,102185.28
2022-10-04T14:25:48.329Z,102189.81
2022-10-04T14:28:28.319Z,102186.44
2022-10-04T14:31:23.346Z,102193.63
2022-10-04T14:34:35.644Z,102194.88
2022-10-04T14:37:50.575Z,102198.63
2022-10-04T14:40:54.495Z,102198.91
2022-10-04T14:43:47.769Z,102209.38
2022-10-04T14:46:18.334Z,102215.31
2022-10-04T14:49:02.520Z,102220.28
2022-10-04T14:52:07.852Z,102220.69
2022-10-04T14:54:45.268Z,102223.03
2022-10-04T14:57:39.682Z,102228.50
2022-10-04T15:00:32.915Z,102219.13
2022-10-04T15:03:15.821Z,102224.72
2022-10-04T15:06:07.865Z,102229.56
2022-10-04T15:09:14.522Z,102230.81
2022-10-04T15:12:25.523Z,102218.81
2022-10-04T15:15:15.792Z,102213.94
2022-10-04T15:17:55.546Z,102224.81
2022-10-04T15:20:37.730Z,102220.69
2022-10-04T15:23:18.103Z,102219.84
2022-10-04T15:25:53.324Z,102228.78
2022-10-04T15:28:53.454Z,102220.88
2022-10-04T15:31:47.731Z,102227.94
2022-10-04T15:34:36.261Z,102221.75
2022-10-04T15:37:24.440Z,102219.22
2022-10-04T15:40:33.718Z,102212.56
2022-10-04T15:43:16.035Z,102214.03
2022-10-04T15:46:21.910Z,102218.00
2022-10-04T15:49:09.878Z,102212.94
2022-10-04T15:52:17.470Z,102211.47
2022-10-04T15:55:14.997Z,102223.78
2022-10-04T15:57:48.266Z,102217.47
2022-10-04T16:00:52.743Z,102217.38
2022-10-04T16:03:41.956Z,102226.31
2022-10-04T16:06:34.531Z,102222.19
2022-10-04T16:09:19.175Z,102219.00
2022-10-04T16:12:02.676Z,102221.94
2022-10-04T16:14:52.212Z,102210.03
2022-10-04T16:17:26.522Z,102212.00
2022-10-04T16:20:09.256Z,102210.41
2022-10-04T16:22:39.716Z,102207.03
2022-10-04T16:25:27.813Z,102205.91
2022-10-04T16:27:58.020Z,102205.81
2022-10-04T16:30:39.402Z,102203.28
2022-10-04T16:33:30.163Z,102202.22
2022-10-04T16:36:22.230Z,102194.31
2022-10-04T16:39:20.210Z,102191.69
2022-10-04T16:42:19.082Z,102198.66
2022-10-04T16:45:19.149Z,102196.31
2022-10-04T16:48:02.958Z,102191.34
2022-10-04T16:51:09.324Z,102202.34
2022-10-04T16:54:19.101Z,102202.94
2022-10-04T16:56:58.892Z,102203.31
2022-10-04T16:59:43.244Z,102204.28
2022-10-04T17:02:47.501Z,102210.78
2022-10-04T17:05:54.561Z,102202.44
2022-10-04T17:08:48.265Z,102208.16
2022-10-04T17:11:29.596Z,102209.41
2022-10-04T17:14:26.165Z,102205.94
2022-10-04T17:17:08.592Z,102199.84
2022-10-04T17:19:52.483Z,102202.66
2022-10-04T17:22:55.467Z,102202.94
2022-10-04T17:25:34.687Z,102204.16
2022-10-04T17:28:27.522Z,102194.56
2022-10-04T17:31:04.203Z,102195.72
2022-10-04T17:34:23.248Z,102201.16
2022-10-04T17:36:58.632Z,102204.09
2022-10-04T17:40:09.701Z,102212.44
2022-10-04T17:42:58.233Z,102220.97
2022-10-04T17:46:07.184Z,102216.19
2022-10-04T17:49:24.103Z,102203.50
2022-10-04T17:52:16.687Z,102197.88
2022-10-04T17:55:11.747Z,102201.59
2022-10-04T17:57:43.899Z,102200.94
2022-10-04T18:00:26.443Z,102197.56
2022-10-04T18:03:14.463Z,102195.88
2022-10-04T18:05:45.756Z,102193.16
2022-10-04T18:08:20.007Z,102180.97
2022-10-04T18:10:57.724Z,102184.59
2022-10-04T18:13:38.477Z,102178.59
2022-10-04T18:16:30.509Z,102184.16
2022-10-04T18:19:25.183Z,102180.75
2022-10-04T18:21:57.798Z,102182.91
2022-10-04T18:24:34.270Z,102178.66
2022-10-04T18:27:19.892Z,102185.63
2022-10-04T18:30:14.759Z,102176.78
2022-10-04T18:32:53.790Z,102177.66
2022-10-04T18:35:36.034Z,102179.31
2022-10-04T18:38:30.476Z,102180.28
2022-10-04T18:41:24.686Z,102182.03
2022-10-04T18:44:00.955Z,102187.38
2022-10-04T18:46:41.243Z,102187.50
2022-10-04T18:49:26.931Z,102199.00
2022-10-04T18:52:02.827Z,102195.72
2022-10-04T18:55:04.582Z,102197.50
2022-10-04T18:58:00.671Z,102195.91
2022-10-04T19:01:03.858Z,102194.13
2022-10-04T19:03:39.826Z,102198.53
2022-10-04T19:06:32.613Z,102190.56
2022-10-04T19:09:21.008Z,102192.25
2022-10-04T19:12:03.954Z,102197.69
2022-10-04T19:15:15.113Z,102195.44
2022-10-04T19:18:10.225Z,102195.44
2022-10-04T19:20:43.027Z,102201.78
2022-10-04T19:23:44.506Z,102183.69
2022-10-04T19:26:32.119Z,102186.56
2022-10-04T19:29:28.880Z,102187.00
2022-10-04T19:32:02.178Z,102184.63
2022-10-04T19:35:14.533Z,102184.06
2022-10-04T19:38:02.844Z,102190.34
2022-10-04T19:40:50.027Z,102189.66
2022-10-04T19:43:49.154Z,102192.28
2022-10-04T19:46:44.158Z,102188.03
2022-10-04T19:49:36.094Z,102188.28
2022-10-04T19:52:42.540Z,102191.94
2022-10-04T19:55:18.877Z,102188.72
2022-10-04T19:57:55.517Z,102182.72
2022-10-04T20:00:25.659Z,102174.84
2022-10-04T20:02:56.027Z,102179.16
2022-10-04T20:05:26.816Z,102192.13
2022-10-04T20:08:08.966Z,102187.13
2022-10-04T20:10:41.938Z,102187.38
2022-10-04T20:13:24.886Z,102184.00
2022-10-04T20:16:00.984Z,102192.03
2022-10-04T20:18:33.977Z,102182.47
2022-10-04T20:21:06.738Z,102184.53
2022-10-04T20:23:50.175Z,102186.97
2022-10-04T20:26:55.099Z,102189.59
2022-10-04T20:29:40.875Z,102189.84
2022-10-04T20:32:40.083Z,102191.88
2022-10-04T20:35:34.159Z,102188.59
2022-10-04T20:38:30.563Z,102197.53
2022-10-04T20:40:55.621Z,102182.03
2022-10-04T20:43:28.513Z,102179.41
2022-10-04T20:45:59.992Z,102186.59
2022-10-04T20:48:35.057Z,102190.22
2022-10-04T20:51:12.372Z,102189.38
2022-10-04T20:53:52.117Z,102195.47
2022-10-04T20:56:33.465Z,102186.91
2022-10-04T20:59:06.106Z,102181.00
2022-10-04T21:01:45.231Z,102183.53
2022-10-04T21:04:46.846Z,102195.72
2022-10-04T21:07:21.251Z,102187.75
2022-10-04T21:09:54.554Z,102196.88
2022-10-04T21:12:34.574Z,102197.91
2022-10-04T21:15:22.768Z,102198.06
2022-10-04T21:18:04.512Z,102205.16
2022-10-04T21:20:47.456Z,102213.25
2022-10-04T21:23:43.651Z,102220.69
2022-10-04T21:26:27.372Z,102222.56
2022-10-04T21:28:59.076Z,102238.44
2022-10-04T21:31:29.341Z,102242.13
2022-10-04T21:34:00.014Z,102236.88
2022-10-04T21:36:30.504Z,102246.69
2022-10-04T21:39:00.637Z,102251.91
2022-10-04T21:41:31.683Z,102248.59
2022-10-04T21:44:02.127Z,102255.78
2022-10-04T21:46:32.357Z,102245.38
2022-10-04T21:49:03.960Z,102257.88
2022-10-04T21:51:37.462Z,102256.25
2022-10-04T21:54:09.213Z,102256.41
2022-10-04T21:56:39.520Z,102261.72
2022-10-04T21:59:09.671Z,102259.19
2022-10-04T22:01:39.703Z,102268.88
2022-10-04T22:04:09.682Z,102272.28
2022-10-04T22:06:39.731Z,102274.81
2022-10-04T22:09:10.169Z,102270.59
2022-10-04T22:11:40.837Z,102271.59
2022-10-04T22:14:11.049Z,102271.75
2022-10-04T22:16:41.701Z,102267.41
2022-10-04T22:19:11.911Z,102269.97
2022-10-04T22:21:42.462Z,102273.59
2022-10-04T22:27:04.586Z,102262.03
2022-10-04T22:29:36.259Z,102261.19
2022-10-04T22:32:15.082Z,102268.03
2022-10-04T22:34:45.381Z,102266.25
2022-10-04T22:37:15.701Z,102266.19
2022-10-04T22:39:45.821Z,102270.50
2022-10-04T22:42:16.947Z,102273.00
2022-10-04T22:44:47.704Z,102276.44
2022-10-04T22:47:18.445Z,102280.59
2022-10-04T22:49:49.855Z,102283.00
2022-10-04T22:52:22.939Z,102281.63
2022-10-04T22:54:54.422Z,102277.50
2022-10-04T22:57:26.222Z,102278.03
2022-10-04T22:59:56.882Z,102281.19
2022-10-04T23:02:31.364Z,102287.72
2022-10-04T23:05:13.491Z,102290.81
2022-10-04T23:07:43.794Z,102290.47
2022-10-04T23:10:16.564Z,102296.34
2022-10-04T23:12:52.235Z,102301.19
2022-10-04T23:15:23.804Z,102307.16
2022-10-04T23:17:59.675Z,102301.41
2022-10-04T23:20:31.637Z,102302.16
2022-10-04T23:23:02.344Z,102307.06
2022-10-04T23:25:33.130Z,102311.22
2022-10-04T23:28:15.252Z,102314.25
2022-10-04T23:30:48.433Z,102317.34
2022-10-04T23:33:25.507Z,102318.53
2022-10-04T23:35:59.748Z,102313.88
2022-10-04T23:38:32.954Z,102308.84
2022-10-04T23:41:04.009Z,102316.50
2022-10-04T23:43:34.531Z,102314.44
2022-10-04T23:46:12.166Z,102315.88
2022-10-04T23:48:43.180Z,102311.22
2022-10-04T23:51:17.817Z,102317.81
2022-10-04T23:53:50.712Z,102315.59
2022-10-04T23:56:27.115Z,102317.78
2022-10-04T23:59:00.986Z,102320.66
